sensor_id;sensor_type;location;lat;lon;timestamp;temperature;humidity
28546;DHT22;15749;49.606;8.738;2023-08-30T00:00:42;21.40;99.90
28546;DHT22;15749;49.606;8.738;2023-08-30T00:03:13;21.50;99.90
28546;DHT22;15749;49.606;8.738;2023-08-30T00:05:42;21.50;99.90
28546;DHT22;15749;49.606;8.738;2023-08-30T00:08:11;21.40;99.90
28546;DHT22;15749;49.606;8.738;2023-08-30T00:10:42;21.40;99.90
28546;DHT22;15749;49.606;8.738;2023-08-30T00:13:11;21.40;99.90
28546;DHT22;15749;49.606;8.738;2023-08-30T00:15:40;21.40;99.90
28546;DHT22;15749;49.606;8.738;2023-08-30T00:18:09;21.40;99.90
28546;DHT22;15749;49.606;8.738;2023-08-30T00:20:38;21.40;99.90
28546;DHT22;15749;49.606;8.738;2023-08-30T00:23:07;21.40;99.90
28546;DHT22;15749;49.606;8.738;2023-08-30T00:25:36;21.40;99.90
28546;DHT22;15749;49.606;8.738;2023-08-30T00:28:06;21.40;99.90
28546;DHT22;15749;49.606;8.738;2023-08-30T00:30:35;21.40;99.90
28546;DHT22;15749;49.606;8.738;2023-08-30T00:33:04;21.40;99.90
28546;DHT22;15749;49.606;8.738;2023-08-30T00:35:33;21.40;99.90
28546;DHT22;15749;49.606;8.738;2023-08-30T00:38:02;21.30;99.90
28546;DHT22;15749;49.606;8.738;2023-08-30T00:40:38;21.30;99.90
28546;DHT22;15749;49.606;8.738;2023-08-30T00:43:09;21.30;99.90
28546;DHT22;15749;49.606;8.738;2023-08-30T00:45:39;21.30;99.90
28546;DHT22;15749;49.606;8.738;2023-08-30T00:48:08;21.30;99.90
28546;DHT22;15749;49.606;8.738;2023-08-30T00:50:38;21.40;99.90
28546;DHT22;15749;49.606;8.738;2023-08-30T00:53:25;21.30;99.90
28546;DHT22;15749;49.606;8.738;2023-08-30T00:55:55;21.30;99.90
28546;DHT22;15749;49.606;8.738;2023-08-30T00:58:25;21.30;99.90
28546;DHT22;15749;49.606;8.738;2023-08-30T01:00:55;21.30;99.90
28546;DHT22;15749;49.606;8.738;2023-08-30T01:03:25;21.30;99.90
28546;DHT22;15749;49.606;8.738;2023-08-30T01:05:58;21.30;99.90
28546;DHT22;15749;49.606;8.738;2023-08-30T01:08:27;21.30;99.90
28546;DHT22;15749;49.606;8.738;2023-08-30T01:11:00;21.30;99.90
28546;DHT22;15749;49.606;8.738;2023-08-30T01:13:36;21.30;99.90
28546;DHT22;15749;49.606;8.738;2023-08-30T01:16:06;21.30;99.90
28546;DHT22;15749;49.606;8.738;2023-08-30T01:18:36;21.30;99.90
28546;DHT22;15749;49.606;8.738;2023-08-30T01:21:11;21.30;99.90
28546;DHT22;15749;49.606;8.738;2023-08-30T01:23:48;21.30;99.90
28546;DHT22;15749;49.606;8.738;2023-08-30T01:26:26;21.30;99.90
28546;DHT22;15749;49.606;8.738;2023-08-30T01:29:01;21.30;99.90
28546;DHT22;15749;49.606;8.738;2023-08-30T01:31:32;21.30;99.90
28546;DHT22;15749;49.606;8.738;2023-08-30T01:34:02;21.30;99.90
28546;DHT22;15749;49.606;8.738;2023-08-30T01:36:32;21.20;99.90
28546;DHT22;15749;49.606;8.738;2023-08-30T01:39:05;21.20;99.90
28546;DHT22;15749;49.606;8.738;2023-08-30T01:41:35;21.20;99.90
28546;DHT22;15749;49.606;8.738;2023-08-30T01:44:06;21.20;99.90
28546;DHT22;15749;49.606;8.738;2023-08-30T01:46:37;21.20;99.90
28546;DHT22;15749;49.606;8.738;2023-08-30T01:49:07;21.20;99.90
28546;DHT22;15749;49.606;8.738;2023-08-30T01:51:37;21.20;99.90
28546;DHT22;15749;49.606;8.738;2023-08-30T01:54:09;21.20;99.90
28546;DHT22;15749;49.606;8.738;2023-08-30T01:56:39;21.20;99.90
28546;DHT22;15749;49.606;8.738;2023-08-30T01:59:09;21.20;99.90
28546;DHT22;15749;49.606;8.738;2023-08-30T02:01:38;21.20;99.90
28546;DHT22;15749;49.606;8.738;2023-08-30T02:04:07;21.20;99.90
28546;DHT22;15749;49.606;8.738;2023-08-30T02:06:39;21.20;99.90
28546;DHT22;15749;49.606;8.738;2023-08-30T02:09:17;21.20;99.90
28546;DHT22;15749;49.606;8.738;2023-08-30T02:11:49;21.10;99.90
28546;DHT22;15749;49.606;8.738;2023-08-30T02:14:21;21.10;99.90
28546;DHT22;15749;49.606;8.738;2023-08-30T02:16:51;21.10;99.90
28546;DHT22;15749;49.606;8.738;2023-08-30T02:19:20;21.10;99.90
28546;DHT22;15749;49.606;8.738;2023-08-30T02:21:49;21.10;99.90
28546;DHT22;15749;49.606;8.738;2023-08-30T02:24:18;21.10;99.90
28546;DHT22;15749;49.606;8.738;2023-08-30T02:26:47;21.10;99.90
28546;DHT22;15749;49.606;8.738;2023-08-30T02:29:15;21.10;99.90
28546;DHT22;15749;49.606;8.738;2023-08-30T02:31:45;21.10;99.90
28546;DHT22;15749;49.606;8.738;2023-08-30T02:34:14;21.10;99.90
28546;DHT22;15749;49.606;8.738;2023-08-30T02:36:46;21.10;99.90
28546;DHT22;15749;49.606;8.738;2023-08-30T02:39:15;21.10;99.90
28546;DHT22;15749;49.606;8.738;2023-08-30T02:41:43;21.10;99.90
28546;DHT22;15749;49.606;8.738;2023-08-30T02:44:14;21.10;99.90
28546;DHT22;15749;49.606;8.738;2023-08-30T02:46:43;21.10;99.90
28546;DHT22;15749;49.606;8.738;2023-08-30T02:49:13;21.10;99.90
28546;DHT22;15749;49.606;8.738;2023-08-30T02:51:42;21.10;99.90
28546;DHT22;15749;49.606;8.738;2023-08-30T02:54:11;21.10;99.90
28546;DHT22;15749;49.606;8.738;2023-08-30T02:56:44;21.10;99.90
28546;DHT22;15749;49.606;8.738;2023-08-30T02:59:13;21.00;99.90
28546;DHT22;15749;49.606;8.738;2023-08-30T03:01:44;21.10;99.90
28546;DHT22;15749;49.606;8.738;2023-08-30T03:04:16;21.00;99.90
28546;DHT22;15749;49.606;8.738;2023-08-30T03:06:46;21.10;99.90
28546;DHT22;15749;49.606;8.738;2023-08-30T03:09:15;21.00;99.90
28546;DHT22;15749;49.606;8.738;2023-08-30T03:11:44;21.00;99.90
28546;DHT22;15749;49.606;8.738;2023-08-30T03:14:13;21.00;99.90
28546;DHT22;15749;49.606;8.738;2023-08-30T03:16:43;21.00;99.90
28546;DHT22;15749;49.606;8.738;2023-08-30T03:19:14;21.00;99.90
28546;DHT22;15749;49.606;8.738;2023-08-30T03:21:46;21.00;99.90
28546;DHT22;15749;49.606;8.738;2023-08-30T03:24:15;21.00;99.90
28546;DHT22;15749;49.606;8.738;2023-08-30T03:26:44;21.00;99.90
28546;DHT22;15749;49.606;8.738;2023-08-30T03:29:13;21.00;99.90
28546;DHT22;15749;49.606;8.738;2023-08-30T03:31:42;21.00;99.90
28546;DHT22;15749;49.606;8.738;2023-08-30T03:34:11;21.00;99.90
28546;DHT22;15749;49.606;8.738;2023-08-30T03:36:41;21.00;99.90
28546;DHT22;15749;49.606;8.738;2023-08-30T03:39:12;21.00;99.90
28546;DHT22;15749;49.606;8.738;2023-08-30T03:41:41;21.00;99.90
28546;DHT22;15749;49.606;8.738;2023-08-30T03:44:10;21.00;99.90
28546;DHT22;15749;49.606;8.738;2023-08-30T03:46:39;21.00;99.90
28546;DHT22;15749;49.606;8.738;2023-08-30T03:49:08;21.00;99.90
28546;DHT22;15749;49.606;8.738;2023-08-30T03:51:38;21.00;99.90
28546;DHT22;15749;49.606;8.738;2023-08-30T03:54:07;21.00;99.90
28546;DHT22;15749;49.606;8.738;2023-08-30T03:56:42;21.00;99.90
28546;DHT22;15749;49.606;8.738;2023-08-30T03:59:12;21.00;99.90
28546;DHT22;15749;49.606;8.738;2023-08-30T04:01:41;21.00;99.90
28546;DHT22;15749;49.606;8.738;2023-08-30T04:04:10;21.00;99.90
28546;DHT22;15749;49.606;8.738;2023-08-30T04:06:40;21.00;99.90
28546;DHT22;15749;49.606;8.738;2023-08-30T04:09:08;21.00;99.90
28546;DHT22;15749;49.606;8.738;2023-08-30T04:11:37;21.00;99.90
28546;DHT22;15749;49.606;8.738;2023-08-30T04:14:08;21.00;99.90
28546;DHT22;15749;49.606;8.738;2023-08-30T04:16:36;21.00;99.90
28546;DHT22;15749;49.606;8.738;2023-08-30T04:19:07;21.00;99.90
28546;DHT22;15749;49.606;8.738;2023-08-30T04:21:36;21.00;99.90
28546;DHT22;15749;49.606;8.738;2023-08-30T04:24:06;21.00;99.90
28546;DHT22;15749;49.606;8.738;2023-08-30T04:26:34;21.00;99.90
28546;DHT22;15749;49.606;8.738;2023-08-30T04:29:03;21.00;99.90
28546;DHT22;15749;49.606;8.738;2023-08-30T04:31:34;21.00;99.90
28546;DHT22;15749;49.606;8.738;2023-08-30T04:34:05;21.00;99.90
28546;DHT22;15749;49.606;8.738;2023-08-30T04:36:36;21.00;99.90
28546;DHT22;15749;49.606;8.738;2023-08-30T04:39:05;21.00;99.90
28546;DHT22;15749;49.606;8.738;2023-08-30T04:41:33;21.00;99.90
28546;DHT22;15749;49.606;8.738;2023-08-30T04:44:02;21.00;99.90
28546;DHT22;15749;49.606;8.738;2023-08-30T04:46:33;21.00;99.90
28546;DHT22;15749;49.606;8.738;2023-08-30T04:49:02;21.00;99.90
28546;DHT22;15749;49.606;8.738;2023-08-30T04:51:33;21.00;99.90
28546;DHT22;15749;49.606;8.738;2023-08-30T04:54:02;21.00;99.90
28546;DHT22;15749;49.606;8.738;2023-08-30T04:56:31;21.00;99.90
28546;DHT22;15749;49.606;8.738;2023-08-30T04:59:00;21.00;99.90
28546;DHT22;15749;49.606;8.738;2023-08-30T05:01:33;21.00;99.90
28546;DHT22;15749;49.606;8.738;2023-08-30T05:04:02;21.00;99.90
28546;DHT22;15749;49.606;8.738;2023-08-30T05:06:31;21.00;99.90
28546;DHT22;15749;49.606;8.738;2023-08-30T05:09:00;21.00;99.90
28546;DHT22;15749;49.606;8.738;2023-08-30T05:11:30;21.00;99.90
28546;DHT22;15749;49.606;8.738;2023-08-30T05:13:58;21.00;99.90
28546;DHT22;15749;49.606;8.738;2023-08-30T05:16:27;21.00;99.90
28546;DHT22;15749;49.606;8.738;2023-08-30T05:18:57;21.00;99.90
28546;DHT22;15749;49.606;8.738;2023-08-30T05:21:26;21.00;99.90
28546;DHT22;15749;49.606;8.738;2023-08-30T05:23:56;21.00;99.90
28546;DHT22;15749;49.606;8.738;2023-08-30T05:26:25;21.00;99.90
28546;DHT22;15749;49.606;8.738;2023-08-30T05:28:53;21.00;99.90
28546;DHT22;15749;49.606;8.738;2023-08-30T05:31:22;21.00;99.90
28546;DHT22;15749;49.606;8.738;2023-08-30T05:34:11;21.00;99.90
28546;DHT22;15749;49.606;8.738;2023-08-30T05:36:59;21.00;99.90
28546;DHT22;15749;49.606;8.738;2023-08-30T05:39:39;21.00;99.90
28546;DHT22;15749;49.606;8.738;2023-08-30T05:42:07;21.00;99.90
28546;DHT22;15749;49.606;8.738;2023-08-30T05:44:36;21.00;99.90
28546;DHT22;15749;49.606;8.738;2023-08-30T05:47:05;21.00;99.90
28546;DHT22;15749;49.606;8.738;2023-08-30T05:49:36;21.00;99.90
28546;DHT22;15749;49.606;8.738;2023-08-30T05:52:05;21.00;99.90
28546;DHT22;15749;49.606;8.738;2023-08-30T05:54:34;21.00;99.90
28546;DHT22;15749;49.606;8.738;2023-08-30T05:57:04;20.90;99.90
28546;DHT22;15749;49.606;8.738;2023-08-30T05:59:33;21.00;99.90
28546;DHT22;15749;49.606;8.738;2023-08-30T06:02:02;21.00;99.90
28546;DHT22;15749;49.606;8.738;2023-08-30T06:04:32;21.00;99.90
28546;DHT22;15749;49.606;8.738;2023-08-30T06:07:02;21.00;99.90
28546;DHT22;15749;49.606;8.738;2023-08-30T06:09:31;21.00;99.90
28546;DHT22;15749;49.606;8.738;2023-08-30T06:12:00;21.00;99.90
28546;DHT22;15749;49.606;8.738;2023-08-30T06:14:29;21.00;99.90
28546;DHT22;15749;49.606;8.738;2023-08-30T06:16:58;21.00;99.90
28546;DHT22;15749;49.606;8.738;2023-08-30T06:19:26;21.00;99.90
28546;DHT22;15749;49.606;8.738;2023-08-30T06:21:55;20.90;99.90
28546;DHT22;15749;49.606;8.738;2023-08-30T06:24:25;21.00;99.90
28546;DHT22;15749;49.606;8.738;2023-08-30T06:26:54;21.00;99.90
28546;DHT22;15749;49.606;8.738;2023-08-30T06:29:23;21.00;99.90
28546;DHT22;15749;49.606;8.738;2023-08-30T06:31:52;21.00;99.90
28546;DHT22;15749;49.606;8.738;2023-08-30T06:34:21;21.00;99.90
28546;DHT22;15749;49.606;8.738;2023-08-30T06:36:49;21.00;99.90
28546;DHT22;15749;49.606;8.738;2023-08-30T06:39:18;21.00;99.90
28546;DHT22;15749;49.606;8.738;2023-08-30T06:41:48;21.00;99.90
28546;DHT22;15749;49.606;8.738;2023-08-30T06:44:20;21.00;99.90
28546;DHT22;15749;49.606;8.738;2023-08-30T06:46:49;21.00;99.90
28546;DHT22;15749;49.606;8.738;2023-08-30T06:49:18;21.00;99.90
28546;DHT22;15749;49.606;8.738;2023-08-30T06:51:47;21.00;99.90
28546;DHT22;15749;49.606;8.738;2023-08-30T06:54:16;21.00;99.90
28546;DHT22;15749;49.606;8.738;2023-08-30T06:56:58;21.10;99.90
28546;DHT22;15749;49.606;8.738;2023-08-30T06:59:29;21.00;99.90
28546;DHT22;15749;49.606;8.738;2023-08-30T07:01:58;21.10;99.90
28546;DHT22;15749;49.606;8.738;2023-08-30T07:04:27;21.10;99.90
28546;DHT22;15749;49.606;8.738;2023-08-30T07:06:57;21.10;99.90
28546;DHT22;15749;49.606;8.738;2023-08-30T07:09:47;21.10;99.90
28546;DHT22;15749;49.606;8.738;2023-08-30T07:12:17;21.10;99.90
28546;DHT22;15749;49.606;8.738;2023-08-30T07:14:46;21.10;99.90
28546;DHT22;15749;49.606;8.738;2023-08-30T07:17:15;21.10;99.90
28546;DHT22;15749;49.606;8.738;2023-08-30T07:19:44;21.10;99.90
28546;DHT22;15749;49.606;8.738;2023-08-30T07:22:12;21.10;99.90
28546;DHT22;15749;49.606;8.738;2023-08-30T07:24:45;21.10;99.90
28546;DHT22;15749;49.606;8.738;2023-08-30T07:27:14;21.20;99.90
28546;DHT22;15749;49.606;8.738;2023-08-30T07:29:45;21.20;99.90
28546;DHT22;15749;49.606;8.738;2023-08-30T07:32:14;21.20;99.90
28546;DHT22;15749;49.606;8.738;2023-08-30T07:34:43;21.20;99.90
28546;DHT22;15749;49.606;8.738;2023-08-30T07:37:18;21.20;99.90
28546;DHT22;15749;49.606;8.738;2023-08-30T07:39:48;21.20;99.90
28546;DHT22;15749;49.606;8.738;2023-08-30T07:42:17;21.30;99.90
28546;DHT22;15749;49.606;8.738;2023-08-30T07:44:47;21.30;99.90
28546;DHT22;15749;49.606;8.738;2023-08-30T07:47:16;21.30;99.90
28546;DHT22;15749;49.606;8.738;2023-08-30T07:49:45;21.30;99.90
28546;DHT22;15749;49.606;8.738;2023-08-30T07:52:14;21.30;99.90
28546;DHT22;15749;49.606;8.738;2023-08-30T07:54:47;21.30;99.90
28546;DHT22;15749;49.606;8.738;2023-08-30T07:57:17;21.30;99.90
28546;DHT22;15749;49.606;8.738;2023-08-30T07:59:47;21.30;99.90
28546;DHT22;15749;49.606;8.738;2023-08-30T08:02:16;21.30;99.90
28546;DHT22;15749;49.606;8.738;2023-08-30T08:04:45;21.40;99.90
28546;DHT22;15749;49.606;8.738;2023-08-30T08:07:14;21.40;99.90
28546;DHT22;15749;49.606;8.738;2023-08-30T08:09:44;21.40;99.90
28546;DHT22;15749;49.606;8.738;2023-08-30T08:12:13;21.40;99.90
28546;DHT22;15749;49.606;8.738;2023-08-30T08:14:43;21.50;99.90
28546;DHT22;15749;49.606;8.738;2023-08-30T08:17:14;21.50;99.90
28546;DHT22;15749;49.606;8.738;2023-08-30T08:19:43;21.50;99.90
28546;DHT22;15749;49.606;8.738;2023-08-30T08:22:12;21.50;99.90
28546;DHT22;15749;49.606;8.738;2023-08-30T08:24:42;21.60;99.90
28546;DHT22;15749;49.606;8.738;2023-08-30T08:27:13;21.60;99.90
28546;DHT22;15749;49.606;8.738;2023-08-30T08:29:43;21.60;99.90
28546;DHT22;15749;49.606;8.738;2023-08-30T08:32:13;21.70;99.90
28546;DHT22;15749;49.606;8.738;2023-08-30T08:34:42;21.70;99.90
28546;DHT22;15749;49.606;8.738;2023-08-30T08:37:12;21.70;99.90
28546;DHT22;15749;49.606;8.738;2023-08-30T08:39:41;21.70;99.90
28546;DHT22;15749;49.606;8.738;2023-08-30T08:42:11;21.70;99.90
28546;DHT22;15749;49.606;8.738;2023-08-30T08:44:43;21.80;99.90
28546;DHT22;15749;49.606;8.738;2023-08-30T08:47:14;21.80;99.90
28546;DHT22;15749;49.606;8.738;2023-08-30T08:49:44;21.80;99.90
28546;DHT22;15749;49.606;8.738;2023-08-30T08:52:14;21.90;99.90
28546;DHT22;15749;49.606;8.738;2023-08-30T08:54:59;21.90;99.90
28546;DHT22;15749;49.606;8.738;2023-08-30T08:57:29;22.00;99.90
28546;DHT22;15749;49.606;8.738;2023-08-30T09:00:02;22.00;99.90
28546;DHT22;15749;49.606;8.738;2023-08-30T09:02:33;22.00;99.90
28546;DHT22;15749;49.606;8.738;2023-08-30T09:05:03;22.00;99.90
28546;DHT22;15749;49.606;8.738;2023-08-30T09:07:33;22.10;99.90
28546;DHT22;15749;49.606;8.738;2023-08-30T09:10:02;22.10;99.90
28546;DHT22;15749;49.606;8.738;2023-08-30T09:12:32;22.10;99.90
28546;DHT22;15749;49.606;8.738;2023-08-30T09:15:02;22.20;99.90
28546;DHT22;15749;49.606;8.738;2023-08-30T09:17:37;22.20;99.90
28546;DHT22;15749;49.606;8.738;2023-08-30T09:20:10;22.20;99.90
28546;DHT22;15749;49.606;8.738;2023-08-30T09:22:40;22.30;99.90
28546;DHT22;15749;49.606;8.738;2023-08-30T09:25:10;22.30;99.90
28546;DHT22;15749;49.606;8.738;2023-08-30T09:27:39;22.40;99.90
28546;DHT22;15749;49.606;8.738;2023-08-30T09:30:11;22.40;99.90
28546;DHT22;15749;49.606;8.738;2023-08-30T09:32:42;22.40;99.90
28546;DHT22;15749;49.606;8.738;2023-08-30T09:35:12;22.50;99.90
28546;DHT22;15749;49.606;8.738;2023-08-30T09:37:44;22.50;99.90
28546;DHT22;15749;49.606;8.738;2023-08-30T09:40:18;22.50;99.90
28546;DHT22;15749;49.606;8.738;2023-08-30T09:42:48;22.60;99.90
28546;DHT22;15749;49.606;8.738;2023-08-30T09:45:37;22.60;99.90
28546;DHT22;15749;49.606;8.738;2023-08-30T09:48:08;22.60;99.90
28546;DHT22;15749;49.606;8.738;2023-08-30T09:50:39;22.70;99.90
28546;DHT22;15749;49.606;8.738;2023-08-30T09:53:09;22.70;99.90
28546;DHT22;15749;49.606;8.738;2023-08-30T09:55:40;22.80;99.90
28546;DHT22;15749;49.606;8.738;2023-08-30T09:58:10;22.80;99.90
28546;DHT22;15749;49.606;8.738;2023-08-30T10:00:42;22.80;99.90
28546;DHT22;15749;49.606;8.738;2023-08-30T10:03:14;22.90;99.90
28546;DHT22;15749;49.606;8.738;2023-08-30T10:05:58;22.90;99.90
28546;DHT22;15749;49.606;8.738;2023-08-30T10:08:29;23.00;99.90
28546;DHT22;15749;49.606;8.738;2023-08-30T10:11:02;23.00;99.90
28546;DHT22;15749;49.606;8.738;2023-08-30T10:13:35;23.00;99.90
28546;DHT22;15749;49.606;8.738;2023-08-30T10:16:09;23.00;99.90
28546;DHT22;15749;49.606;8.738;2023-08-30T10:18:43;23.10;99.90
28546;DHT22;15749;49.606;8.738;2023-08-30T10:21:30;23.10;99.90
28546;DHT22;15749;49.606;8.738;2023-08-30T10:24:00;23.20;99.90
28546;DHT22;15749;49.606;8.738;2023-08-30T10:26:45;23.20;99.90
28546;DHT22;15749;49.606;8.738;2023-08-30T10:29:16;23.20;99.90
28546;DHT22;15749;49.606;8.738;2023-08-30T10:31:46;23.20;99.90
28546;DHT22;15749;49.606;8.738;2023-08-30T10:34:17;23.20;99.90
28546;DHT22;15749;49.606;8.738;2023-08-30T10:36:56;23.30;99.90
28546;DHT22;15749;49.606;8.738;2023-08-30T10:39:33;23.30;99.90
28546;DHT22;15749;49.606;8.738;2023-08-30T10:42:09;23.30;99.90
28546;DHT22;15749;49.606;8.738;2023-08-30T10:44:47;23.40;99.90
28546;DHT22;15749;49.606;8.738;2023-08-30T10:47:38;23.30;99.90
28546;DHT22;15749;49.606;8.738;2023-08-30T10:50:10;23.40;99.90
28546;DHT22;15749;49.606;8.738;2023-08-30T10:52:40;23.40;99.90
28546;DHT22;15749;49.606;8.738;2023-08-30T10:55:10;23.40;99.90
28546;DHT22;15749;49.606;8.738;2023-08-30T10:57:42;23.40;99.90
28546;DHT22;15749;49.606;8.738;2023-08-30T11:00:18;23.50;99.90
28546;DHT22;15749;49.606;8.738;2023-08-30T11:02:49;23.50;99.90
28546;DHT22;15749;49.606;8.738;2023-08-30T11:05:21;23.50;99.90
28546;DHT22;15749;49.606;8.738;2023-08-30T11:07:52;23.60;99.90
28546;DHT22;15749;49.606;8.738;2023-08-30T11:10:21;23.60;99.90
28546;DHT22;15749;49.606;8.738;2023-08-30T11:12:50;23.60;99.90
28546;DHT22;15749;49.606;8.738;2023-08-30T11:15:20;23.60;99.90
28546;DHT22;15749;49.606;8.738;2023-08-30T11:17:49;23.70;99.90
28546;DHT22;15749;49.606;8.738;2023-08-30T11:20:20;23.70;99.90
28546;DHT22;15749;49.606;8.738;2023-08-30T11:22:49;23.70;99.90
28546;DHT22;15749;49.606;8.738;2023-08-30T11:25:20;23.80;99.90
28546;DHT22;15749;49.606;8.738;2023-08-30T11:27:49;23.80;99.90
28546;DHT22;15749;49.606;8.738;2023-08-30T11:30:18;23.80;99.90
28546;DHT22;15749;49.606;8.738;2023-08-30T11:32:49;23.80;99.90
28546;DHT22;15749;49.606;8.738;2023-08-30T11:35:22;23.80;99.90
28546;DHT22;15749;49.606;8.738;2023-08-30T11:37:51;23.90;99.90
28546;DHT22;15749;49.606;8.738;2023-08-30T11:40:20;23.90;99.90
28546;DHT22;15749;49.606;8.738;2023-08-30T11:42:51;23.90;99.90
28546;DHT22;15749;49.606;8.738;2023-08-30T11:45:21;24.00;99.90
28546;DHT22;15749;49.606;8.738;2023-08-30T11:47:58;24.00;99.90
28546;DHT22;15749;49.606;8.738;2023-08-30T11:50:29;24.00;99.90
28546;DHT22;15749;49.606;8.738;2023-08-30T11:53:13;24.00;99.90
28546;DHT22;15749;49.606;8.738;2023-08-30T11:55:42;24.10;99.90
28546;DHT22;15749;49.606;8.738;2023-08-30T11:58:12;24.10;99.90
28546;DHT22;15749;49.606;8.738;2023-08-30T12:00:41;24.10;99.90
28546;DHT22;15749;49.606;8.738;2023-08-30T12:03:13;24.10;99.90
28546;DHT22;15749;49.606;8.738;2023-08-30T12:05:48;24.10;99.90
28546;DHT22;15749;49.606;8.738;2023-08-30T12:08:18;24.10;99.90
28546;DHT22;15749;49.606;8.738;2023-08-30T12:10:48;24.20;99.90
28546;DHT22;15749;49.606;8.738;2023-08-30T12:13:21;24.20;99.90
28546;DHT22;15749;49.606;8.738;2023-08-30T12:15:51;24.20;99.90
28546;DHT22;15749;49.606;8.738;2023-08-30T12:18:21;24.20;99.90
28546;DHT22;15749;49.606;8.738;2023-08-30T12:20:54;24.20;99.90
28546;DHT22;15749;49.606;8.738;2023-08-30T12:23:27;24.20;99.90
28546;DHT22;15749;49.606;8.738;2023-08-30T12:26:00;24.20;99.90
28546;DHT22;15749;49.606;8.738;2023-08-30T12:28:31;24.30;99.90
28546;DHT22;15749;49.606;8.738;2023-08-30T12:31:02;24.30;99.90
28546;DHT22;15749;49.606;8.738;2023-08-30T12:33:32;24.30;99.90
28546;DHT22;15749;49.606;8.738;2023-08-30T12:36:03;24.30;99.90
28546;DHT22;15749;49.606;8.738;2023-08-30T12:38:34;24.30;99.90
28546;DHT22;15749;49.606;8.738;2023-08-30T12:41:04;24.30;99.90
28546;DHT22;15749;49.606;8.738;2023-08-30T12:43:33;24.30;99.90
28546;DHT22;15749;49.606;8.738;2023-08-30T12:46:02;24.30;99.90
28546;DHT22;15749;49.606;8.738;2023-08-30T12:48:32;24.30;99.90
28546;DHT22;15749;49.606;8.738;2023-08-30T12:51:02;24.30;99.90
28546;DHT22;15749;49.606;8.738;2023-08-30T12:53:32;24.40;99.90
28546;DHT22;15749;49.606;8.738;2023-08-30T12:56:01;24.40;99.90
28546;DHT22;15749;49.606;8.738;2023-08-30T12:58:32;24.40;99.90
28546;DHT22;15749;49.606;8.738;2023-08-30T13:01:01;24.40;99.90
28546;DHT22;15749;49.606;8.738;2023-08-30T13:03:32;24.40;99.90
28546;DHT22;15749;49.606;8.738;2023-08-30T13:06:02;24.40;99.90
28546;DHT22;15749;49.606;8.738;2023-08-30T13:08:32;24.40;99.90
28546;DHT22;15749;49.606;8.738;2023-08-30T13:11:01;24.50;99.90
28546;DHT22;15749;49.606;8.738;2023-08-30T13:13:30;24.40;99.90
28546;DHT22;15749;49.606;8.738;2023-08-30T13:15:59;24.50;99.90
28546;DHT22;15749;49.606;8.738;2023-08-30T13:18:30;24.40;99.90
28546;DHT22;15749;49.606;8.738;2023-08-30T13:21:00;24.50;99.90
28546;DHT22;15749;49.606;8.738;2023-08-30T13:23:30;24.50;99.90
28546;DHT22;15749;49.606;8.738;2023-08-30T13:25:59;24.50;99.90
28546;DHT22;15749;49.606;8.738;2023-08-30T13:28:28;24.50;99.90
28546;DHT22;15749;49.606;8.738;2023-08-30T13:30:58;24.60;99.90
28546;DHT22;15749;49.606;8.738;2023-08-30T13:33:30;24.50;99.90
28546;DHT22;15749;49.606;8.738;2023-08-30T13:35:59;24.60;99.90
28546;DHT22;15749;49.606;8.738;2023-08-30T13:38:31;24.50;99.90
28546;DHT22;15749;49.606;8.738;2023-08-30T13:41:00;24.60;99.90
28546;DHT22;15749;49.606;8.738;2023-08-30T13:43:31;24.60;99.90
28546;DHT22;15749;49.606;8.738;2023-08-30T13:46:01;24.50;99.90
28546;DHT22;15749;49.606;8.738;2023-08-30T13:48:32;24.50;99.90
28546;DHT22;15749;49.606;8.738;2023-08-30T13:51:02;24.50;99.90
28546;DHT22;15749;49.606;8.738;2023-08-30T13:53:32;24.50;99.90
28546;DHT22;15749;49.606;8.738;2023-08-30T13:56:01;24.50;99.90
28546;DHT22;15749;49.606;8.738;2023-08-30T13:58:31;24.50;99.90
28546;DHT22;15749;49.606;8.738;2023-08-30T14:01:00;24.50;99.90
28546;DHT22;15749;49.606;8.738;2023-08-30T14:03:33;24.50;99.90
28546;DHT22;15749;49.606;8.738;2023-08-30T14:06:02;24.50;99.90
28546;DHT22;15749;49.606;8.738;2023-08-30T14:08:33;24.40;99.90
28546;DHT22;15749;49.606;8.738;2023-08-30T14:11:02;24.40;99.90
28546;DHT22;15749;49.606;8.738;2023-08-30T14:13:32;24.40;99.90
28546;DHT22;15749;49.606;8.738;2023-08-30T14:16:01;24.40;99.90
28546;DHT22;15749;49.606;8.738;2023-08-30T14:18:31;24.40;99.90
28546;DHT22;15749;49.606;8.738;2023-08-30T14:21:01;24.40;99.90
28546;DHT22;15749;49.606;8.738;2023-08-30T14:23:30;24.40;99.90
28546;DHT22;15749;49.606;8.738;2023-08-30T14:26:02;24.40;99.90
28546;DHT22;15749;49.606;8.738;2023-08-30T14:28:37;24.40;99.90
28546;DHT22;15749;49.606;8.738;2023-08-30T14:31:06;24.30;99.90
28546;DHT22;15749;49.606;8.738;2023-08-30T14:33:36;24.30;99.90
28546;DHT22;15749;49.606;8.738;2023-08-30T14:36:08;24.30;99.90
28546;DHT22;15749;49.606;8.738;2023-08-30T14:38:38;24.30;99.90
28546;DHT22;15749;49.606;8.738;2023-08-30T14:41:10;24.30;99.90
28546;DHT22;15749;49.606;8.738;2023-08-30T14:43:40;24.30;99.90
28546;DHT22;15749;49.606;8.738;2023-08-30T14:46:09;24.30;99.90
28546;DHT22;15749;49.606;8.738;2023-08-30T14:48:42;24.30;99.90
28546;DHT22;15749;49.606;8.738;2023-08-30T14:51:11;24.30;99.90
28546;DHT22;15749;49.606;8.738;2023-08-30T14:53:40;24.30;99.90
28546;DHT22;15749;49.606;8.738;2023-08-30T14:56:11;24.30;99.90
28546;DHT22;15749;49.606;8.738;2023-08-30T14:58:41;24.30;99.90
28546;DHT22;15749;49.606;8.738;2023-08-30T15:01:12;24.30;99.90
28546;DHT22;15749;49.606;8.738;2023-08-30T15:03:41;24.20;99.90
28546;DHT22;15749;49.606;8.738;2023-08-30T15:06:11;24.20;99.90
28546;DHT22;15749;49.606;8.738;2023-08-30T15:08:40;24.20;99.90
28546;DHT22;15749;49.606;8.738;2023-08-30T15:11:12;24.20;99.90
28546;DHT22;15749;49.606;8.738;2023-08-30T15:13:42;24.20;99.90
28546;DHT22;15749;49.606;8.738;2023-08-30T15:16:11;24.20;99.90
28546;DHT22;15749;49.606;8.738;2023-08-30T15:18:40;24.20;99.90
28546;DHT22;15749;49.606;8.738;2023-08-30T15:21:09;24.20;99.90
28546;DHT22;15749;49.606;8.738;2023-08-30T15:23:38;24.20;99.90
28546;DHT22;15749;49.606;8.738;2023-08-30T15:26:08;24.10;99.90
28546;DHT22;15749;49.606;8.738;2023-08-30T15:28:49;24.10;99.90
28546;DHT22;15749;49.606;8.738;2023-08-30T15:31:30;24.10;99.90
28546;DHT22;15749;49.606;8.738;2023-08-30T15:34:00;24.10;99.90
28546;DHT22;15749;49.606;8.738;2023-08-30T15:36:30;24.10;99.90
28546;DHT22;15749;49.606;8.738;2023-08-30T15:39:00;24.10;99.90
28546;DHT22;15749;49.606;8.738;2023-08-30T15:41:30;24.10;99.90
28546;DHT22;15749;49.606;8.738;2023-08-30T15:44:08;24.10;99.90
28546;DHT22;15749;49.606;8.738;2023-08-30T15:46:42;24.10;99.90
28546;DHT22;15749;49.606;8.738;2023-08-30T15:49:14;24.00;99.90
28546;DHT22;15749;49.606;8.738;2023-08-30T15:51:46;24.00;99.90